Terminal Aerodrome Forecast
Issued by NWS Albany, NY

Home | Current Version | Previous Version | Text Only | Print | Product List | Glossary On
Versions: 1 2 3 4 5 6 7 8 9 10 11 12 13 14 15 16 17 18 19
000
FTUS41 KALY 162357
TAFGFL
TAF
KGFL 162357Z 1700/1724 06005KT P6SM SCT250
     FM170200 VRB03KT P6SM SKC
     FM170800 00000KT 4SM BR SKC
     FM171100 VRB03KT P6SM SKC
     FM171400 16006KT P6SM SCT250
     FM172100 13005KT P6SM BKN250=

USA.gov is the U.S. government's official web portal to all federal, state and local government web resources and services.